LIBRLIBD

Guest
Details From LIBR - BRINDISI/Casale
To LIBD - Bari Palese Macchie
Flight Number -
Tags generated
Created
Modified
Stats Distance 61 nm / 113 km
Max Altitude 10,300 ft / 3,139 m
Waypoints 3
Social Downloads 9
Likes 0
Share VATSIM

Download

Looking for another format? Having issues loading an existing format? Contact us
Advertisement - Login to hide

Notes

Basic altitude profile: - Ascent Rate: 2500ft/min - Ascent Speed: 250kts - Cruise Altitude: 30000ft - Cruise Speed: 300kts - Descent Rate: 1500ft/min - Descent Speed: 250kts

Route

LIBR FASAN LIBD

ID Type Via Altitude Latitude Longitude Leg Dist Tot Dist Heading (true) Name
O LIBR APT - 0 ft / 0 m 40.66082˚ 17.94267˚ - 0 nm - BRINDISI/Casale
FASAN FIX - 10,300 ft / 3,139 m 40.86389˚ 17.42694˚ 26 nm 26 nm 298° / 297° -
O LIBD APT - 0 ft / 0 m 41.13787˚ 16.75832˚ 34 nm 60 nm 299° / 298° Bari Palese Macchie

Altitude Profile

Advertisement - Login to hide

LIBR

Details ICAO LIBR (BDS)
Name BRINDISI/Casale
Region Italy
Timezone Europe/Rome (UTC+1.0)
Stats Elevation 47 ft / 14 m (AMSL)
Location 40.660824° 17.942673°
Runways 2
Magnetic Variation 3.891° E

METAR

LIBR 170615Z 25010KT 9999 BKN040 09/07 Q1010 NOSIG

Decode

TAF

TAF LIBR 170500Z 1706/1806 22008KT 9999 SCT040 BECMG 1708/1710 28010KT PROB30 TEMPO 1718/1803 7000 RA SCT015 SCT020

Decode

Departure Runways

ID Width Length Bearing (true) Bearing (mag) Surface Threshold Offset Overrun Length
13 148 ft / 45 m 9,398 ft / 2,865 m 136.56° 132.67° Asphalt 0 ft / 0 m 689 ft / 210 m
23 148 ft / 45 m 6,129 ft / 1,868 m 232.52° 228.63° Asphalt 230 ft / 70 m 0 ft / 0 m
31 148 ft / 45 m 9,398 ft / 2,865 m 316.58° 312.69° Asphalt 0 ft / 0 m 387 ft / 118 m
5 148 ft / 45 m 6,129 ft / 1,868 m 52.51° 48.62° Asphalt 0 ft / 0 m 0 ft / 0 m

LIBD

Details ICAO LIBD (BRI)
Name Bari Palese Macchie
Region Italy
Timezone Europe/Rome (UTC+1.0)
Stats Elevation 177 ft / 54 m (AMSL)
Location 41.137865° 16.758318°
Runways 1
Magnetic Variation 3.738° E

METAR

LIBD 170620Z 26006KT CAVOK 06/03 Q1010

Decode

TAF

TAF LIBD 170500Z 1706/1806 30010KT 9999 SCT030 BECMG 1706/1708 30015G25KT TEMPO 1721/1724 RA

Decode

Destination Runways

ID Width Length Bearing (true) Bearing (mag) Surface Threshold Offset Overrun Length
07 148 ft / 45 m 9,262 ft / 2,823 m 69.39° 65.65° Asphalt 1,257 ft / 383 m 0 ft / 0 m
25 148 ft / 45 m 9,262 ft / 2,823 m 249.42° 245.68° Asphalt 0 ft / 0 m 194 ft / 59 m

Approach Navaids

Runway Type Ident Frequency Range Bearing (true) Bearing (mag) Slope Elevation
07 Localiser BAP 111.35 MHz 18 nm / 33 km 69.25° 65.51° - 177 ft / 54 m (AMSL)
07 Glidescope BAP 111.35 MHz 10 nm / 19 km 69.25° 65.51° 3.32° 177 ft / 54 m (AMSL)
07 DME BAP 111.35 MHz 18 nm / 33 km - - - 183 ft / 56 m (AMSL)

Popular Alternatives